Portada
METAR-TAF:

METAR-TAF

Aeroports :

Hangzhou, Xina

latitud: 30-14N, longitud: 120-10E, altitud: 43 m

Observació

L'informe es va fer fa 23 minuts, a les 11:00 UTC
Vent 6 kt del Est, variant entre Est/Nord-Est i Sud-Est
Temperatura 10°C
Humitat 76%
Pressió 1025 hPa
Visibilitat 10 km o més
sense núvols per sota de 1500 mi sense presència de cumulonimbus.

METAR: ZSHC 271100Z 09003MPS 070V130 CAVOK 10/06 Q1025 NOSIG

Hora: 19:23 (11:23 UTC)

Pronòstic

L'informe es va fer fa 8 hores i 20 minuts, a les 03:03 UTC
Pronòstic vàlid del 27 a les 06 UTC al 28 a les 06 UTC
Vent 10 kt del Est
Visibilitat: 3000 m
Cel ennuvolat a una alçada de 2000 ft
boirina
Evolucionant progressivament
l' 27 a les 20 UTC al 27 a les 21 UTC
Vent 6 kt del Sud

TAF: ZSHC 270303Z 2706/2806 09005MPS 3000 BR BKN020 TX19/2806Z TN09/2721Z BECMG 2720/2721 18003MPS

Observacions i pronòstics meteorològics de més de 4000 aeroports (METAR i TAF).

Les estacions disponibles són els punts grocs i vermells al mapa.

Posi el ratolí al punt desitjat per veure el nom de l'estació.

Feu clic per veure les observacions i els pronòstics meteorològics.

Per canviar el mapa: feu clic els botons verds amb una creu de color negre per apropar; al botó verd amb un guió per allunyar la imatge; o en les fletxes verdes per a mapes adjacents.


METAR-TAF: